createdAt,value
2023-01-13T00:00:48.193Z,63.99
2023-01-13T00:03:52.225Z,62.97
2023-01-13T00:06:56.161Z,62.49
2023-01-13T00:10:00.233Z,61.19
2023-01-13T00:13:04.110Z,60.99
2023-01-13T00:16:08.003Z,63.11
2023-01-13T00:19:11.779Z,63.25
2023-01-13T00:22:15.944Z,63.18
2023-01-13T00:25:19.983Z,63.33
2023-01-13T00:28:23.704Z,63.32
2023-01-13T00:31:27.774Z,63.09
2023-01-13T00:34:31.786Z,63.22
2023-01-13T00:37:35.846Z,63.39
2023-01-13T00:40:39.797Z,63.34
2023-01-13T00:43:43.789Z,63.48
2023-01-13T00:46:47.771Z,62.86
2023-01-13T00:49:51.701Z,63.49
2023-01-13T00:52:55.625Z,63.05
2023-01-13T00:55:59.563Z,63.23
2023-01-13T00:59:03.285Z,63.15
2023-01-13T01:02:07.411Z,63.25
2023-01-13T01:05:11.289Z,64.25
2023-01-13T01:08:15.233Z,64.57
2023-01-13T01:11:19.333Z,63.49
2023-01-13T01:14:23.157Z,64.50
2023-01-13T01:17:27.292Z,65.40
2023-01-13T01:20:31.158Z,63.08
2023-01-13T01:23:35.080Z,63.44
2023-01-13T01:26:39.122Z,62.89
2023-01-13T01:29:43.075Z,62.08
2023-01-13T01:32:47.018Z,60.99
2023-01-13T01:35:50.823Z,61.91
2023-01-13T01:38:54.737Z,61.91
2023-01-13T01:41:58.842Z,60.77
2023-01-13T01:45:02.887Z,60.79
2023-01-13T01:48:06.762Z,61.62
2023-01-13T01:51:10.661Z,60.90
2023-01-13T01:54:14.769Z,59.13
2023-01-13T01:57:19.019Z,59.26
2023-01-13T02:00:23.175Z,58.85
2023-01-13T02:03:27.020Z,60.00
2023-01-13T02:06:30.955Z,58.16
2023-01-13T02:09:35.078Z,58.58
2023-01-13T02:12:39.124Z,59.32
2023-01-13T02:15:43.010Z,62.72
2023-01-13T02:18:46.985Z,61.66
2023-01-13T02:21:50.982Z,63.24
2023-01-13T02:24:55.034Z,62.16
2023-01-13T02:27:58.940Z,62.56
2023-01-13T02:31:02.764Z,63.23
2023-01-13T02:34:06.747Z,64.79
2023-01-13T02:37:10.648Z,62.78
2023-01-13T02:40:14.725Z,62.24
2023-01-13T02:43:18.673Z,63.03
2023-01-13T02:46:22.834Z,61.24
2023-01-13T02:49:26.933Z,62.46
2023-01-13T02:52:30.984Z,62.02
2023-01-13T02:55:34.963Z,61.95
2023-01-13T02:58:38.812Z,62.59
2023-01-13T03:01:43.172Z,60.70
2023-01-13T03:04:47.138Z,60.26
2023-01-13T03:07:51.140Z,61.34
2023-01-13T03:10:55.040Z,61.24
2023-01-13T03:13:58.899Z,61.32
2023-01-13T03:17:02.828Z,61.08
2023-01-13T03:20:06.902Z,61.52
2023-01-13T03:23:10.715Z,61.09
2023-01-13T03:26:14.459Z,60.85
2023-01-13T03:29:20.390Z,63.53
2023-01-13T03:32:24.553Z,64.63
2023-01-13T03:35:28.869Z,64.84
2023-01-13T03:38:32.829Z,63.46
2023-01-13T03:41:37.027Z,63.89
2023-01-13T03:44:40.915Z,64.39
2023-01-13T03:47:44.911Z,64.74
2023-01-13T03:50:48.716Z,65.34
2023-01-13T03:53:52.622Z,64.08
2023-01-13T03:56:56.447Z,66.46
2023-01-13T04:00:00.511Z,68.13
2023-01-13T04:03:04.547Z,68.46
2023-01-13T04:06:08.585Z,68.54
2023-01-13T04:09:12.491Z,69.06
2023-01-13T04:12:16.282Z,67.70
2023-01-13T04:15:20.276Z,68.24
2023-01-13T04:18:24.279Z,68.06
2023-01-13T04:21:28.224Z,68.64
2023-01-13T04:24:32.340Z,69.45
2023-01-13T04:27:36.673Z,70.44
2023-01-13T04:30:40.647Z,71.76
2023-01-13T04:33:44.517Z,71.30
2023-01-13T04:36:48.470Z,73.55
2023-01-13T04:39:52.453Z,74.29
2023-01-13T04:42:56.705Z,74.96
2023-01-13T04:46:00.538Z,76.54
2023-01-13T04:49:04.535Z,75.18
2023-01-13T04:52:08.332Z,75.69
2023-01-13T04:55:12.179Z,76.47
2023-01-13T04:58:16.060Z,76.34
2023-01-13T05:01:20.053Z,76.49
2023-01-13T05:04:23.773Z,75.53
2023-01-13T05:07:27.767Z,75.68
2023-01-13T05:10:32.113Z,76.00
2023-01-13T05:13:35.874Z,74.38
2023-01-13T05:16:39.798Z,75.66
2023-01-13T05:19:43.912Z,74.04
2023-01-13T05:22:48.172Z,74.86
2023-01-13T05:25:52.378Z,75.60
2023-01-13T05:28:56.371Z,76.03
2023-01-13T05:32:00.206Z,77.69
2023-01-13T05:35:04.454Z,75.80
2023-01-13T05:38:08.689Z,75.15
2023-01-13T05:41:12.593Z,75.09
2023-01-13T05:44:16.479Z,75.24
2023-01-13T05:47:20.525Z,75.67
2023-01-13T05:50:24.555Z,75.22
2023-01-13T05:53:28.886Z,75.06
2023-01-13T05:56:33.105Z,75.96
2023-01-13T05:59:36.712Z,76.09
2023-01-13T06:02:40.767Z,78.41
2023-01-13T06:05:44.693Z,74.59
2023-01-13T06:08:48.907Z,76.63
2023-01-13T06:11:52.744Z,76.50
2023-01-13T06:14:56.766Z,76.59
2023-01-13T06:18:00.658Z,75.96
2023-01-13T06:21:04.637Z,75.86
2023-01-13T06:24:08.585Z,75.80
2023-01-13T06:27:12.298Z,77.45
2023-01-13T06:30:16.171Z,76.20
2023-01-13T06:33:20.255Z,75.49
2023-01-13T06:36:24.073Z,75.20
2023-01-13T06:39:27.944Z,75.35
2023-01-13T06:42:32.180Z,75.68
2023-01-13T06:45:36.221Z,75.11
2023-01-13T06:48:40.247Z,76.09
2023-01-13T06:51:44.135Z,77.32
2023-01-13T06:54:48.182Z,77.25
2023-01-13T06:57:52.974Z,78.71
2023-01-13T07:00:57.346Z,78.63
2023-01-13T07:04:03.537Z,78.24
2023-01-13T07:07:09.025Z,77.66
2023-01-13T07:10:15.489Z,77.65
2023-01-13T07:13:20.558Z,77.96
2023-01-13T07:16:27.178Z,76.39
2023-01-13T07:19:31.105Z,78.53
2023-01-13T07:22:35.370Z,76.70
2023-01-13T07:25:40.463Z,76.90
2023-01-13T07:28:44.715Z,78.02
2023-01-13T07:31:50.135Z,78.00
2023-01-13T07:34:54.435Z,77.67
2023-01-13T07:37:58.484Z,76.49
2023-01-13T07:41:02.899Z,77.07
2023-01-13T07:44:07.430Z,77.85
2023-01-13T07:47:11.567Z,78.68
2023-01-13T07:50:15.357Z,77.18
2023-01-13T07:53:19.693Z,78.49
2023-01-13T07:56:23.607Z,77.43
2023-01-13T07:59:43.059Z,76.53
2023-01-13T08:02:46.909Z,75.88
2023-01-13T08:05:51.272Z,73.80
2023-01-13T08:08:55.175Z,75.68
2023-01-13T08:12:01.276Z,74.57
2023-01-13T08:15:05.502Z,74.64
2023-01-13T08:18:09.470Z,75.70
2023-01-13T08:21:13.158Z,74.67
2023-01-13T08:24:17.421Z,73.56
2023-01-13T08:27:24.533Z,74.67
2023-01-13T08:30:28.523Z,77.35
2023-01-13T08:33:32.322Z,74.95
2023-01-13T08:36:37.432Z,76.42
2023-01-13T08:39:41.399Z,76.34
2023-01-13T08:42:48.374Z,76.16
2023-01-13T08:45:53.744Z,75.89
2023-01-13T08:48:57.469Z,76.50
2023-01-13T08:52:01.246Z,77.01
2023-01-13T08:55:05.154Z,76.68
2023-01-13T08:58:15.674Z,77.71
2023-01-13T09:01:20.424Z,76.11
2023-01-13T09:04:24.455Z,76.35
2023-01-13T09:07:28.484Z,75.68
2023-01-13T09:10:32.275Z,75.35
2023-01-13T09:13:36.339Z,75.69
2023-01-13T09:16:41.456Z,75.36
2023-01-13T09:19:45.541Z,75.81
2023-01-13T09:22:49.342Z,75.36
2023-01-13T09:25:53.074Z,75.45
2023-01-13T09:28:57.451Z,75.53
2023-01-13T09:32:01.958Z,74.16
2023-01-13T09:35:05.908Z,72.61
2023-01-13T09:38:10.007Z,73.23
2023-01-13T09:41:13.761Z,72.76
2023-01-13T09:44:17.673Z,73.50
2023-01-13T09:47:21.627Z,71.83
2023-01-13T09:50:27.410Z,72.56
2023-01-13T09:53:31.547Z,72.92
2023-01-13T09:56:35.367Z,74.58
2023-01-13T09:59:40.584Z,75.40
2023-01-13T10:02:44.688Z,75.81
2023-01-13T10:05:48.857Z,73.74
2023-01-13T10:08:52.951Z,72.96
2023-01-13T10:11:56.740Z,72.38
2023-01-13T10:15:00.522Z,71.81
2023-01-13T10:18:04.610Z,72.64
2023-01-13T10:21:08.330Z,71.90
2023-01-13T10:24:12.238Z,73.69
2023-01-13T10:27:16.368Z,71.36
2023-01-13T10:30:20.656Z,70.84
2023-01-13T10:33:27.590Z,71.30
2023-01-13T10:36:32.425Z,73.27
2023-01-13T10:39:36.529Z,74.01
2023-01-13T10:42:40.182Z,72.85
2023-01-13T10:45:44.535Z,72.93
2023-01-13T10:48:48.606Z,73.62
2023-01-13T10:51:52.260Z,73.45
2023-01-13T10:54:56.281Z,70.91
2023-01-13T10:58:00.074Z,70.70
2023-01-13T11:01:05.204Z,71.61
2023-01-13T11:04:09.338Z,71.44
2023-01-13T11:07:13.296Z,71.40
2023-01-13T11:10:16.983Z,71.63
2023-01-13T11:13:20.831Z,71.44
2023-01-13T11:16:24.886Z,70.97
2023-01-13T11:19:28.850Z,70.45
2023-01-13T11:22:33.763Z,70.89
2023-01-13T11:25:37.876Z,69.32
2023-01-13T11:28:41.995Z,69.92
2023-01-13T11:31:45.968Z,69.09
2023-01-13T11:35:16.346Z,69.45
2023-01-13T11:38:20.591Z,68.62
2023-01-13T11:41:24.514Z,69.04
2023-01-13T11:44:28.640Z,69.79
2023-01-13T11:47:32.519Z,69.34
2023-01-13T11:50:36.307Z,69.20
2023-01-13T11:53:40.201Z,69.56
2023-01-13T11:56:46.565Z,67.64
2023-01-13T11:59:50.757Z,68.71
2023-01-13T12:02:54.543Z,68.70
2023-01-13T12:05:58.762Z,68.50
2023-01-13T12:09:02.723Z,68.71
2023-01-13T12:12:06.874Z,69.12
2023-01-13T12:15:10.842Z,67.71
2023-01-13T12:18:14.555Z,68.17
2023-01-13T12:21:18.690Z,68.24
2023-01-13T12:24:22.455Z,68.58
2023-01-13T12:27:26.853Z,68.37
2023-01-13T12:30:30.962Z,67.41
2023-01-13T12:33:34.599Z,68.60
2023-01-13T12:36:38.513Z,69.13
2023-01-13T12:39:42.425Z,68.93
2023-01-13T12:42:46.819Z,68.94
2023-01-13T12:45:50.627Z,68.66
2023-01-13T12:48:54.755Z,67.72
2023-01-13T12:51:58.632Z,68.97
2023-01-13T12:55:03.376Z,67.06
2023-01-13T12:58:07.187Z,66.47
2023-01-13T13:01:11.205Z,65.12
2023-01-13T13:04:17.356Z,65.63
2023-01-13T13:07:21.480Z,63.98
2023-01-13T13:10:25.400Z,64.68
2023-01-13T13:13:29.196Z,64.11
2023-01-13T13:16:33.242Z,64.65
2023-01-13T13:19:37.186Z,63.97
2023-01-13T13:22:41.320Z,63.12
2023-01-13T13:25:46.416Z,63.86
2023-01-13T13:28:50.571Z,63.33
2023-01-13T13:31:54.408Z,62.92
2023-01-13T13:35:01.687Z,63.07
2023-01-13T13:38:05.759Z,62.28
2023-01-13T13:41:10.268Z,61.41
2023-01-13T13:44:14.211Z,63.17
2023-01-13T13:47:18.621Z,62.77
2023-01-13T13:50:22.567Z,62.99
2023-01-13T13:53:27.259Z,63.82
2023-01-13T13:56:32.899Z,62.19
2023-01-13T13:59:37.220Z,61.35
2023-01-13T14:02:41.178Z,61.58
2023-01-13T14:05:45.111Z,62.27
2023-01-13T14:08:49.078Z,62.17
2023-01-13T14:11:53.132Z,60.92
2023-01-13T14:14:57.057Z,62.83
2023-01-13T14:18:09.456Z,62.63
2023-01-13T14:21:14.237Z,62.76
2023-01-13T14:24:19.605Z,64.31
2023-01-13T14:35:52.476Z,64.58
2023-01-13T14:38:57.363Z,63.94
2023-01-13T14:42:01.856Z,63.17
2023-01-13T14:45:07.125Z,65.01
2023-01-13T14:48:12.329Z,65.23
2023-01-13T14:51:15.896Z,65.24
2023-01-13T15:15:13.096Z,68.72
2023-01-13T15:21:57.171Z,68.51
2023-01-13T15:28:42.718Z,68.11
2023-01-13T15:32:38.018Z,66.61
2023-01-13T15:54:06.761Z,67.53
2023-01-13T15:56:06.870Z,67.55
2023-01-13T15:59:12.843Z,67.54
2023-01-13T16:09:17.191Z,64.74
2023-01-13T16:12:25.831Z,64.02
2023-01-13T16:19:05.584Z,64.13
2023-01-13T16:25:34.653Z,64.55
2023-01-13T16:39:25.219Z,65.29
2023-01-13T16:47:58.135Z,64.31
2023-01-13T16:57:40.846Z,65.96
2023-01-13T17:07:18.168Z,66.45
2023-01-13T17:14:00.944Z,64.62
2023-01-13T17:17:28.654Z,63.98
2023-01-13T17:20:36.741Z,63.94
2023-01-13T17:23:42.205Z,64.58
2023-01-13T17:28:25.352Z,64.81
2023-01-13T17:30:41.085Z,64.63
2023-01-13T17:33:48.188Z,63.40
2023-01-13T17:37:07.293Z,63.81
2023-01-13T17:43:43.876Z,63.43
2023-01-13T17:46:48.157Z,62.42
2023-01-13T17:50:17.364Z,61.60
2023-01-13T17:53:25.120Z,60.35
2023-01-13T17:56:36.183Z,57.86
2023-01-13T18:00:00.124Z,56.98
2023-01-13T18:03:11.080Z,55.00
2023-01-13T18:09:43.414Z,55.56
2023-01-13T18:13:08.050Z,56.04
2023-01-13T18:19:52.716Z,55.17
2023-01-13T18:23:02.493Z,55.75
2023-01-13T18:26:09.100Z,55.10
2023-01-13T18:29:18.605Z,55.26
2023-01-13T18:36:30.743Z,59.41
2023-01-13T18:39:25.268Z,54.97
2023-01-13T18:42:53.417Z,54.22
2023-01-13T18:46:33.131Z,54.50
2023-01-13T18:49:40.504Z,57.32
2023-01-13T18:57:11.616Z,59.26
2023-01-13T19:31:10.976Z,61.32
2023-01-13T19:38:30.776Z,57.00
2023-01-13T19:48:33.291Z,65.85
2023-01-13T19:51:39.127Z,66.15
2023-01-13T19:54:50.294Z,68.03
2023-01-13T19:58:07.810Z,66.11
2023-01-13T20:01:28.182Z,65.99
2023-01-13T20:12:06.913Z,66.30
2023-01-13T20:29:36.210Z,63.88
2023-01-13T20:32:41.126Z,63.47
2023-01-13T20:35:46.508Z,63.86
2023-01-13T20:38:55.345Z,64.05
2023-01-13T20:42:05.705Z,63.10
2023-01-13T20:45:11.271Z,63.00
2023-01-13T20:48:18.536Z,62.53
2023-01-13T20:51:33.424Z,63.99
2023-01-13T20:54:49.338Z,65.67
2023-01-13T20:57:54.620Z,65.98
2023-01-13T21:01:00.296Z,67.35
2023-01-13T21:04:05.848Z,66.84
2023-01-13T21:07:14.306Z,65.31
2023-01-13T21:10:20.084Z,64.58
2023-01-13T21:13:36.658Z,65.73
2023-01-13T21:16:55.426Z,66.13
2023-01-13T21:20:06.853Z,64.28
2023-01-13T21:24:01.813Z,65.68
2023-01-13T21:26:39.297Z,65.55
2023-01-13T21:29:44.065Z,68.04
2023-01-13T21:32:50.095Z,66.35
2023-01-13T21:41:02.900Z,65.38
2023-01-13T21:42:57.066Z,67.08
2023-01-13T21:46:12.875Z,65.63
2023-01-13T21:49:30.970Z,66.01
2023-01-13T21:52:43.765Z,65.91
2023-01-13T21:55:58.377Z,65.74
2023-01-13T22:02:26.730Z,66.27
2023-01-13T22:05:42.370Z,66.01
2023-01-13T22:08:47.654Z,66.45
2023-01-13T22:12:39.765Z,66.11
2023-01-13T22:15:31.745Z,65.24
2023-01-13T22:19:28.354Z,66.20
2023-01-13T22:22:10.193Z,65.90
2023-01-13T22:25:26.408Z,65.15
2023-01-13T22:28:35.264Z,66.17
2023-01-13T22:31:49.871Z,65.83
2023-01-13T22:38:47.244Z,66.37
2023-01-13T22:41:59.339Z,65.99
2023-01-13T22:49:58.975Z,65.50
2023-01-13T22:51:56.712Z,65.26
2023-01-13T22:55:03.211Z,66.16
2023-01-13T22:58:23.564Z,66.40
2023-01-13T23:01:32.030Z,67.08
2023-01-13T23:04:41.527Z,67.05
2023-01-13T23:07:54.517Z,68.30
2023-01-13T23:11:28.449Z,69.11
2023-01-13T23:21:23.498Z,67.42
2023-01-13T23:31:30.636Z,69.67
2023-01-13T23:34:35.980Z,70.17
2023-01-13T23:37:41.816Z,69.22
2023-01-13T23:40:52.489Z,68.65
2023-01-13T23:44:11.798Z,69.01
2023-01-13T23:47:16.107Z,69.46
2023-01-13T23:50:21.864Z,70.66
2023-01-13T23:53:32.545Z,71.14
2023-01-13T23:56:52.784Z,69.92
2023-01-13T23:59:57.261Z,69.59
